createdAt,value
2024-04-18T00:00:45.945Z,4.30
2024-04-18T00:03:14.453Z,4.30
2024-04-18T00:05:44.502Z,4.20
2024-04-18T00:08:20.626Z,4.30
2024-04-18T00:10:48.983Z,4.00
2024-04-18T00:13:17.010Z,3.90
2024-04-18T00:15:45.531Z,3.90
2024-04-18T00:18:14.099Z,3.80
2024-04-18T00:20:41.362Z,3.90
2024-04-18T00:23:10.141Z,3.80
2024-04-18T00:25:38.666Z,3.80
2024-04-18T00:28:06.902Z,3.60
2024-04-18T00:30:38.832Z,3.60
2024-04-18T00:33:09.745Z,3.60
2024-04-18T00:35:41.302Z,3.60
2024-04-18T00:38:09.876Z,3.70
2024-04-18T00:40:38.698Z,3.60
2024-04-18T00:43:07.999Z,3.50
2024-04-18T00:45:36.668Z,3.40
2024-04-18T00:48:05.860Z,3.40
2024-04-18T00:50:38.069Z,3.50
2024-04-18T00:53:15.929Z,3.50
2024-04-18T00:55:44.413Z,3.40
2024-04-18T00:58:13.064Z,3.50
2024-04-18T01:00:41.935Z,3.60
2024-04-18T01:03:10.807Z,3.60
2024-04-18T01:05:40.413Z,3.50
2024-04-18T01:08:09.188Z,3.50
2024-04-18T01:10:37.707Z,3.40
2024-04-18T01:13:05.946Z,3.50
2024-04-18T01:15:34.433Z,3.40
2024-04-18T01:18:02.933Z,3.30
2024-04-18T01:20:30.974Z,3.20
2024-04-18T01:22:59.449Z,3.10
2024-04-18T01:25:27.457Z,3.10
2024-04-18T01:27:56.155Z,3.30
2024-04-18T01:30:23.431Z,3.30
2024-04-18T01:32:52.152Z,3.40
2024-04-18T01:35:20.573Z,3.20
2024-04-18T01:37:49.358Z,3.30
2024-04-18T01:40:18.007Z,3.50
2024-04-18T01:42:46.831Z,3.60
2024-04-18T01:45:20.472Z,3.60
2024-04-18T01:47:49.533Z,3.60
2024-04-18T01:50:18.033Z,3.30
2024-04-18T01:52:46.463Z,3.10
2024-04-18T01:55:15.239Z,3.10
2024-04-18T01:57:42.604Z,3.20
2024-04-18T02:00:11.649Z,3.30
2024-04-18T02:02:39.871Z,3.30
2024-04-18T02:05:11.115Z,3.20
2024-04-18T02:07:39.698Z,3.10
2024-04-18T02:10:08.222Z,3.10
2024-04-18T02:12:36.644Z,3.00
2024-04-18T02:15:05.482Z,3.00
2024-04-18T02:17:33.288Z,3.00
2024-04-18T02:20:01.858Z,2.90
2024-04-18T02:22:29.108Z,2.70
2024-04-18T02:25:10.452Z,2.80
2024-04-18T02:27:40.277Z,2.70
2024-04-18T02:30:10.521Z,2.70
2024-04-18T02:32:39.477Z,2.60
2024-04-18T02:35:08.172Z,2.60
2024-04-18T02:37:36.397Z,2.60
2024-04-18T02:40:05.051Z,2.60
2024-04-18T02:42:32.856Z,2.50
2024-04-18T02:45:03.575Z,2.50
2024-04-18T02:47:56.221Z,2.40
2024-04-18T02:50:23.512Z,2.30
2024-04-18T02:52:52.618Z,2.30
2024-04-18T02:55:20.934Z,2.30
2024-04-18T02:57:49.185Z,2.30
2024-04-18T03:00:19.019Z,2.40
2024-04-18T03:02:50.914Z,2.30
2024-04-18T03:05:19.459Z,2.20
2024-04-18T03:07:47.949Z,2.30
2024-04-18T03:10:16.298Z,2.20
2024-04-18T03:12:43.587Z,2.20
2024-04-18T03:15:13.098Z,2.20
2024-04-18T03:17:48.151Z,2.20
2024-04-18T03:20:18.416Z,2.10
2024-04-18T03:22:47.359Z,2.00
2024-04-18T03:25:16.757Z,2.10
2024-04-18T03:27:44.843Z,2.00
2024-04-18T03:30:14.962Z,2.10
2024-04-18T03:32:43.639Z,2.00
2024-04-18T03:35:12.134Z,2.00
2024-04-18T03:37:40.631Z,2.00
2024-04-18T03:40:14.177Z,2.00
2024-04-18T03:42:43.931Z,2.00
2024-04-18T03:45:12.512Z,2.00
2024-04-18T03:47:40.450Z,2.00
2024-04-18T03:50:09.074Z,2.10
2024-04-18T03:52:37.811Z,2.00
2024-04-18T03:55:05.439Z,2.00
2024-04-18T03:57:34.114Z,2.00
2024-04-18T04:00:04.032Z,1.90
2024-04-18T04:02:34.702Z,2.00
2024-04-18T04:05:03.877Z,2.00
2024-04-18T04:07:32.306Z,2.00
2024-04-18T04:10:01.230Z,2.00
2024-04-18T04:12:29.968Z,2.00
2024-04-18T04:14:58.719Z,2.10
2024-04-18T04:17:26.108Z,2.20
2024-04-18T04:19:53.582Z,2.10
2024-04-18T04:22:22.552Z,2.10
2024-04-18T04:24:51.121Z,2.20
2024-04-18T04:27:24.357Z,2.30
2024-04-18T04:29:51.654Z,2.30
2024-04-18T04:32:22.911Z,2.30
2024-04-18T04:34:52.300Z,2.40
2024-04-18T04:37:20.614Z,2.50
2024-04-18T04:39:49.170Z,2.50
2024-04-18T04:42:17.636Z,2.60
2024-04-18T04:44:46.685Z,2.60
2024-04-18T04:47:15.124Z,2.70
2024-04-18T04:49:44.267Z,2.80
2024-04-18T04:52:12.629Z,2.80
2024-04-18T04:54:43.803Z,2.80
2024-04-18T04:57:12.780Z,2.70
2024-04-18T04:59:40.320Z,2.80
2024-04-18T05:02:09.060Z,3.00
2024-04-18T05:04:36.411Z,2.90
2024-04-18T05:07:05.079Z,2.90
2024-04-18T05:09:41.671Z,2.90
2024-04-18T05:12:10.058Z,2.70
2024-04-18T05:14:39.622Z,2.70
2024-04-18T05:17:06.942Z,2.70
2024-04-18T05:19:35.701Z,2.80
2024-04-18T05:22:04.630Z,3.00
2024-04-18T05:24:35.727Z,3.00
2024-04-18T05:27:04.898Z,3.00
2024-04-18T05:29:34.068Z,3.10
2024-04-18T05:32:01.440Z,3.20
2024-04-18T05:34:30.192Z,3.40
2024-04-18T05:36:57.608Z,3.40
2024-04-18T05:39:24.905Z,3.50
2024-04-18T05:41:52.175Z,3.50
2024-04-18T05:44:21.592Z,3.60
2024-04-18T05:46:49.911Z,3.70
2024-04-18T05:49:18.417Z,3.80
2024-04-18T05:51:46.336Z,3.80
2024-04-18T05:54:14.028Z,3.90
2024-04-18T05:56:44.405Z,3.90
2024-04-18T05:59:13.451Z,3.90
2024-04-18T06:01:42.960Z,4.00
2024-04-18T06:04:13.987Z,4.00
2024-04-18T06:06:44.427Z,4.10
2024-04-18T06:09:13.103Z,4.10
2024-04-18T06:11:41.761Z,4.10
2024-04-18T06:14:10.740Z,4.30
2024-04-18T06:16:38.619Z,4.40
2024-04-18T06:19:06.892Z,4.50
2024-04-18T06:21:35.515Z,4.60
2024-04-18T06:24:04.427Z,4.70
2024-04-18T06:26:33.607Z,4.80
2024-04-18T06:29:00.856Z,4.90
2024-04-18T06:31:29.296Z,4.90
2024-04-18T06:33:59.056Z,5.00
2024-04-18T06:36:26.358Z,5.10
2024-04-18T06:38:56.047Z,5.20
2024-04-18T06:41:26.553Z,5.20
2024-04-18T06:43:55.180Z,5.20
2024-04-18T06:46:23.516Z,5.30
2024-04-18T06:48:55.566Z,5.30
2024-04-18T06:51:22.847Z,5.30
2024-04-18T06:53:50.313Z,5.30
2024-04-18T06:56:19.720Z,5.30
2024-04-18T06:58:50.752Z,5.10
2024-04-18T07:01:19.322Z,5.20
2024-04-18T07:03:47.867Z,5.10
2024-04-18T07:06:16.261Z,5.10
2024-04-18T07:08:43.498Z,5.20
2024-04-18T07:11:12.016Z,5.30
2024-04-18T07:13:40.510Z,5.40
2024-04-18T07:16:09.070Z,5.50
2024-04-18T07:18:49.927Z,5.60
2024-04-18T07:21:18.594Z,5.70
2024-04-18T07:23:46.956Z,5.60
2024-04-18T07:26:17.654Z,5.80
2024-04-18T07:28:46.367Z,5.90
2024-04-18T07:31:14.944Z,6.00
2024-04-18T07:33:43.307Z,6.10
2024-04-18T07:36:11.875Z,6.10
2024-04-18T07:38:40.249Z,6.10
2024-04-18T07:41:08.907Z,6.00
2024-04-18T07:43:37.834Z,6.10
2024-04-18T07:46:06.520Z,6.10
2024-04-18T07:48:35.103Z,6.10
2024-04-18T07:51:03.512Z,6.20
2024-04-18T07:53:33.284Z,6.20
2024-04-18T07:56:03.413Z,6.20
2024-04-18T07:58:33.056Z,6.30
2024-04-18T08:01:06.180Z,6.30
2024-04-18T08:03:38.715Z,6.40
2024-04-18T08:06:11.379Z,6.50
2024-04-18T08:08:42.745Z,6.60
2024-04-18T08:11:40.298Z,6.70
2024-04-18T08:14:04.491Z,6.80
2024-04-18T08:16:35.844Z,6.90
2024-04-18T08:19:04.293Z,6.90
2024-04-18T08:21:36.415Z,6.90
2024-04-18T08:24:05.073Z,7.00
2024-04-18T08:26:33.942Z,7.10
2024-04-18T08:29:02.407Z,7.20
2024-04-18T08:31:31.361Z,7.00
2024-04-18T08:34:11.372Z,6.90
2024-04-18T08:36:45.205Z,7.10
2024-04-18T08:39:13.961Z,7.10
2024-04-18T08:41:47.591Z,7.20
2024-04-18T08:44:16.898Z,7.40
2024-04-18T08:46:45.933Z,7.60
2024-04-18T08:49:15.113Z,7.80
2024-04-18T08:51:44.756Z,7.80
2024-04-18T08:54:14.392Z,7.90
2024-04-18T08:56:49.313Z,8.00
2024-04-18T08:59:19.969Z,7.80
2024-04-18T09:01:48.863Z,7.90
2024-04-18T09:04:17.374Z,8.00
2024-04-18T09:06:45.264Z,8.10
2024-04-18T09:09:17.216Z,8.30
2024-04-18T09:11:46.694Z,8.10
2024-04-18T09:14:15.971Z,8.40
2024-04-18T09:16:44.718Z,8.60
2024-04-18T09:19:14.247Z,8.70
2024-04-18T09:21:42.470Z,8.90
2024-04-18T09:24:11.212Z,8.70
2024-04-18T09:26:40.201Z,8.70
2024-04-18T09:29:09.059Z,8.80
2024-04-18T09:31:42.413Z,9.00
2024-04-18T09:34:17.708Z,9.10
2024-04-18T09:36:47.721Z,8.80
2024-04-18T09:39:27.084Z,9.10
2024-04-18T09:42:02.920Z,9.30
2024-04-18T09:44:33.051Z,9.50
2024-04-18T09:47:05.633Z,9.40
2024-04-18T09:49:34.924Z,9.50
2024-04-18T09:52:04.401Z,9.40
2024-04-18T09:54:33.418Z,9.60
2024-04-18T09:57:02.293Z,9.60
2024-04-18T09:59:33.546Z,9.80
2024-04-18T10:02:12.570Z,9.70
2024-04-18T10:04:41.579Z,9.50
2024-04-18T10:07:13.613Z,9.60
2024-04-18T10:09:44.314Z,9.50
2024-04-18T10:12:13.011Z,9.30
2024-04-18T10:14:44.251Z,9.40
2024-04-18T10:17:33.259Z,9.40
2024-04-18T10:20:08.259Z,9.20
2024-04-18T10:22:47.484Z,9.50
2024-04-18T10:25:22.494Z,9.60
2024-04-18T10:27:51.300Z,9.70
2024-04-18T10:30:23.744Z,9.50
2024-04-18T10:32:53.021Z,9.70
2024-04-18T10:35:20.358Z,10.10
2024-04-18T10:37:52.574Z,10.30
2024-04-18T10:40:22.319Z,10.60
2024-04-18T10:42:50.694Z,10.90
2024-04-18T10:45:19.446Z,11.00
2024-04-18T10:47:53.384Z,10.90
2024-04-18T10:50:22.417Z,10.90
2024-04-18T10:52:51.119Z,10.80
2024-04-18T10:55:23.651Z,10.60
2024-04-18T10:57:51.291Z,10.50
2024-04-18T11:00:19.344Z,10.40
2024-04-18T11:05:29.245Z,10.20
2024-04-18T11:07:57.950Z,10.40
2024-04-18T11:10:31.344Z,10.70
2024-04-18T11:12:59.961Z,10.90
2024-04-18T11:15:32.912Z,10.70
2024-04-18T11:18:05.780Z,10.40
2024-04-18T11:20:37.811Z,10.40
2024-04-18T11:23:13.792Z,10.30
2024-04-18T11:25:52.353Z,10.20
2024-04-18T11:28:21.200Z,10.20
2024-04-18T11:30:51.545Z,9.80
2024-04-18T11:33:22.774Z,9.50
2024-04-18T11:35:51.783Z,9.40
2024-04-18T11:38:23.699Z,9.20
2024-04-18T11:40:52.566Z,8.90
2024-04-18T11:43:21.797Z,8.80
2024-04-18T11:45:49.078Z,8.80
2024-04-18T11:48:20.470Z,8.80
2024-04-18T11:50:49.306Z,8.80
2024-04-18T11:53:17.964Z,8.80
2024-04-18T11:55:46.594Z,8.90
2024-04-18T11:58:14.292Z,9.10
2024-04-18T12:00:42.815Z,9.30
2024-04-18T12:03:11.370Z,9.40
2024-04-18T12:05:39.803Z,9.60
2024-04-18T12:08:08.175Z,9.70
2024-04-18T12:10:37.853Z,9.90
2024-04-18T12:13:08.765Z,10.10
2024-04-18T12:15:37.218Z,10.40
2024-04-18T12:18:07.144Z,10.70
2024-04-18T12:20:35.912Z,11.00
2024-04-18T12:23:04.119Z,11.20
2024-04-18T12:25:34.363Z,11.30
2024-04-18T12:28:09.572Z,11.50
2024-04-18T12:30:38.060Z,11.40
2024-04-18T12:33:05.609Z,11.70
2024-04-18T12:35:33.994Z,11.80
2024-04-18T12:38:01.340Z,11.60
2024-04-18T12:40:30.041Z,11.90
2024-04-18T12:42:58.730Z,12.20
2024-04-18T12:45:30.118Z,12.50
2024-04-18T12:47:58.865Z,12.50
2024-04-18T12:50:27.764Z,12.60
2024-04-18T12:52:56.275Z,12.70
2024-04-18T12:55:26.232Z,12.60
2024-04-18T12:57:55.391Z,12.40
2024-04-18T13:00:24.096Z,12.00
2024-04-18T13:02:51.594Z,11.80
2024-04-18T13:05:21.695Z,11.60
2024-04-18T13:07:50.734Z,11.80
2024-04-18T13:10:20.115Z,11.90
2024-04-18T13:12:48.720Z,12.10
2024-04-18T13:15:16.927Z,12.40
2024-04-18T13:17:45.383Z,12.80
2024-04-18T13:20:13.973Z,12.90
2024-04-18T13:22:41.260Z,12.60
2024-04-18T13:25:08.957Z,12.80
2024-04-18T13:27:37.712Z,12.90
2024-04-18T13:30:16.470Z,12.80
2024-04-18T13:32:44.811Z,13.20
2024-04-18T13:35:16.780Z,13.50
2024-04-18T13:37:45.296Z,13.40
2024-04-18T13:40:13.624Z,13.40
2024-04-18T13:42:42.103Z,13.30
2024-04-18T13:45:10.510Z,13.30
2024-04-18T13:47:39.259Z,13.30
2024-04-18T13:50:07.742Z,13.00
2024-04-18T13:52:39.265Z,12.90
2024-04-18T13:55:07.968Z,12.70
2024-04-18T13:57:36.402Z,12.80
2024-04-18T14:00:05.134Z,12.90
2024-04-18T14:02:37.556Z,13.40
2024-04-18T14:05:05.946Z,13.80
2024-04-18T14:07:34.385Z,13.50
2024-04-18T14:10:02.931Z,13.10
2024-04-18T14:12:31.497Z,13.20
2024-04-18T14:15:00.060Z,13.40
2024-04-18T14:17:28.557Z,13.80
2024-04-18T14:19:59.288Z,13.90
2024-04-18T14:22:28.250Z,14.00
2024-04-18T14:24:55.514Z,13.90
2024-04-18T14:27:22.842Z,14.20
2024-04-18T14:29:54.694Z,14.30
2024-04-18T14:32:21.943Z,14.30
2024-04-18T14:34:50.552Z,14.70
2024-04-18T14:37:18.578Z,14.80
2024-04-18T14:39:47.016Z,14.70
2024-04-18T14:42:14.718Z,14.40
2024-04-18T14:44:43.036Z,13.90
2024-04-18T14:47:11.641Z,13.90
2024-04-18T14:49:42.016Z,13.40
2024-04-18T14:52:10.588Z,13.30
2024-04-18T14:54:38.962Z,13.20
2024-04-18T14:57:09.760Z,12.90
2024-04-18T14:59:38.199Z,12.80
2024-04-18T15:02:07.978Z,13.10
2024-04-18T15:04:36.366Z,13.70
2024-04-18T15:07:05.743Z,14.20
2024-04-18T15:09:34.617Z,14.00
2024-04-18T15:12:04.297Z,13.50
2024-04-18T15:14:33.856Z,13.30
2024-04-18T15:17:04.546Z,13.30
2024-04-18T15:19:33.048Z,13.30
2024-04-18T15:22:01.417Z,13.20
2024-04-18T15:24:29.870Z,13.30
2024-04-18T15:27:02.921Z,13.40
2024-04-18T15:29:32.134Z,13.60
2024-04-18T15:32:00.851Z,13.70
2024-04-18T15:34:29.855Z,13.80
2024-04-18T15:36:58.391Z,13.90
2024-04-18T15:39:27.216Z,13.80
2024-04-18T15:41:54.799Z,13.70
2024-04-18T15:44:22.655Z,13.70
2024-04-18T15:46:51.076Z,13.50
2024-04-18T15:49:19.412Z,13.50
2024-04-18T15:51:49.080Z,13.40
2024-04-18T15:54:17.570Z,13.00
2024-04-18T15:56:46.499Z,12.70
2024-04-18T15:59:14.892Z,12.80
2024-04-18T16:01:42.178Z,12.90
2024-04-18T16:04:09.626Z,13.20
2024-04-18T16:06:38.226Z,13.00
2024-04-18T16:09:06.922Z,13.10
2024-04-18T16:11:35.376Z,13.20
2024-04-18T16:14:05.221Z,13.30
2024-04-18T16:16:33.339Z,13.30
2024-04-18T16:19:02.286Z,13.30
2024-04-18T16:21:30.909Z,13.30
2024-04-18T16:23:59.524Z,13.30
2024-04-18T16:26:30.817Z,13.40
2024-04-18T16:29:04.296Z,13.30
2024-04-18T16:31:33.853Z,13.50
2024-04-18T16:34:04.189Z,13.50
2024-04-18T16:36:37.436Z,13.80
2024-04-18T16:39:10.864Z,13.70
2024-04-18T16:41:41.596Z,13.50
2024-04-18T16:44:09.738Z,13.30
2024-04-18T16:46:38.739Z,13.40
2024-04-18T16:49:07.161Z,13.20
2024-04-18T16:51:35.735Z,13.10
2024-04-18T16:54:04.334Z,13.10
2024-04-18T16:56:33.249Z,13.00
2024-04-18T16:59:03.104Z,12.70
2024-04-18T17:01:30.555Z,12.70
2024-04-18T17:03:58.907Z,12.50
2024-04-18T17:06:38.228Z,12.30
2024-04-18T17:09:14.692Z,12.20
2024-04-18T17:11:43.454Z,12.20
2024-04-18T17:14:12.106Z,12.40
2024-04-18T17:16:43.145Z,12.30
2024-04-18T17:19:12.943Z,12.40
2024-04-18T17:21:42.796Z,12.50
2024-04-18T17:24:11.676Z,12.60
2024-04-18T17:26:40.375Z,12.50
2024-04-18T17:29:08.671Z,12.40
2024-04-18T17:31:37.548Z,12.20
2024-04-18T17:34:06.406Z,12.00
2024-04-18T17:36:34.839Z,11.80
2024-04-18T17:39:03.492Z,11.60
2024-04-18T17:41:32.371Z,11.40
2024-04-18T17:44:01.257Z,11.40
2024-04-18T17:46:29.805Z,11.50
2024-04-18T17:48:58.361Z,11.40
2024-04-18T17:51:27.820Z,11.40
2024-04-18T17:53:56.567Z,11.20
2024-04-18T17:56:23.844Z,11.10
2024-04-18T17:58:53.613Z,11.10
2024-04-18T18:01:20.903Z,11.00
2024-04-18T18:03:49.250Z,10.90
2024-04-18T18:06:18.113Z,11.00
2024-04-18T18:08:46.738Z,10.90
2024-04-18T18:11:15.161Z,10.80
2024-04-18T18:13:43.554Z,10.80
2024-04-18T18:16:19.925Z,10.80
2024-04-18T18:18:48.498Z,10.70
2024-04-18T18:21:17.313Z,10.70
2024-04-18T18:23:45.457Z,10.70
2024-04-18T18:26:14.163Z,10.80
2024-04-18T18:28:42.775Z,10.80
2024-04-18T18:31:11.229Z,10.90
2024-04-18T18:33:43.664Z,10.90
2024-04-18T18:36:14.182Z,10.80
2024-04-18T18:38:42.475Z,10.90
2024-04-18T18:41:10.815Z,10.90
2024-04-18T18:43:40.347Z,10.70
2024-04-18T18:46:11.169Z,10.70
2024-04-18T18:48:39.516Z,10.70
2024-04-18T18:51:08.120Z,10.60
2024-04-18T18:53:35.452Z,10.40
2024-04-18T18:56:04.540Z,10.40
2024-04-18T18:58:33.020Z,10.50
2024-04-18T19:01:14.300Z,10.50
2024-04-18T19:03:43.799Z,10.40
2024-04-18T19:06:12.592Z,10.20
2024-04-18T19:08:41.135Z,10.20
2024-04-18T19:11:10.428Z,10.20
2024-04-18T19:13:38.131Z,10.10
2024-04-18T19:16:10.392Z,10.10
2024-04-18T19:18:39.204Z,9.90
2024-04-18T19:21:07.613Z,9.90
2024-04-18T19:23:46.515Z,10.00
2024-04-18T19:26:14.849Z,10.00
2024-04-18T19:28:43.134Z,9.90
2024-04-18T19:31:11.889Z,9.90
2024-04-18T19:33:40.225Z,9.80
2024-04-18T19:36:09.655Z,9.80
2024-04-18T19:38:37.126Z,9.80
2024-04-18T19:41:05.751Z,9.70
2024-04-18T19:43:34.527Z,9.70
2024-04-18T19:46:03.350Z,9.60
2024-04-18T19:48:32.124Z,9.50
2024-04-18T19:51:00.710Z,9.50
2024-04-18T19:53:28.830Z,9.40
2024-04-18T19:55:57.291Z,9.50
2024-04-18T19:58:24.507Z,9.60
2024-04-18T20:00:51.892Z,9.60
2024-04-18T20:03:20.490Z,9.60
2024-04-18T20:05:49.244Z,9.60
2024-04-18T20:08:17.694Z,9.50
2024-04-18T20:10:46.388Z,9.30
2024-04-18T20:13:14.935Z,9.40
2024-04-18T20:15:45.404Z,9.20
2024-04-18T20:18:14.191Z,9.10
2024-04-18T20:20:42.732Z,9.20
2024-04-18T20:23:12.439Z,9.20
2024-04-18T20:25:40.835Z,9.00
2024-04-18T20:28:08.960Z,9.10
2024-04-18T20:30:37.422Z,9.00
2024-04-18T20:33:05.948Z,8.90
2024-04-18T20:35:34.450Z,8.90
2024-04-18T20:38:03.359Z,8.90
2024-04-18T20:40:32.127Z,8.70
2024-04-18T20:43:02.881Z,8.70
2024-04-18T20:45:31.642Z,8.60
2024-04-18T20:48:00.700Z,8.70
2024-04-18T20:50:30.566Z,8.70
2024-04-18T20:52:59.188Z,8.80
2024-04-18T20:55:28.830Z,8.70
2024-04-18T20:57:57.544Z,8.70
2024-04-18T21:00:28.570Z,8.60
2024-04-18T21:02:57.120Z,8.60
2024-04-18T21:05:27.930Z,8.50
2024-04-18T21:07:55.163Z,8.40
2024-04-18T21:10:23.567Z,8.30
2024-04-18T21:12:51.972Z,8.20
2024-04-18T21:15:20.698Z,8.30
2024-04-18T21:17:48.165Z,8.20
2024-04-18T21:20:16.475Z,8.20
2024-04-18T21:22:45.345Z,8.20
2024-04-18T21:25:13.739Z,8.20
2024-04-18T21:27:42.277Z,8.10
2024-04-18T21:30:11.252Z,8.20
2024-04-18T21:32:40.044Z,8.30
2024-04-18T21:35:09.284Z,8.30
2024-04-18T21:37:37.117Z,8.30
2024-04-18T21:40:06.419Z,8.20
2024-04-18T21:42:35.017Z,8.30
2024-04-18T21:45:03.431Z,8.10
2024-04-18T21:47:32.155Z,8.20
2024-04-18T21:50:01.578Z,8.20
2024-04-18T21:52:30.253Z,8.20
2024-04-18T21:54:59.642Z,8.30
2024-04-18T21:57:27.169Z,8.10
2024-04-18T21:59:56.202Z,8.10
2024-04-18T22:02:23.486Z,8.10
2024-04-18T22:04:52.001Z,8.00
2024-04-18T22:07:20.672Z,7.90
2024-04-18T22:09:49.093Z,8.00
2024-04-18T22:12:17.782Z,7.90
2024-04-18T22:14:46.408Z,8.00
2024-04-18T22:17:14.827Z,8.10
2024-04-18T22:19:43.343Z,8.10
2024-04-18T22:22:14.233Z,8.00
2024-04-18T22:24:43.006Z,8.00
2024-04-18T22:27:12.326Z,7.80
2024-04-18T22:29:40.684Z,7.80
2024-04-18T22:32:08.964Z,7.80
2024-04-18T22:34:37.903Z,7.80
2024-04-18T22:37:07.109Z,7.70
2024-04-18T22:39:35.747Z,7.80
2024-04-18T22:42:05.165Z,7.80
2024-04-18T22:44:34.805Z,7.80
2024-04-18T22:47:03.278Z,7.90
2024-04-18T22:49:32.216Z,7.90
2024-04-18T22:52:00.773Z,7.80
2024-04-18T22:54:29.283Z,7.80
2024-04-18T22:56:59.158Z,7.80
2024-04-18T22:59:26.422Z,7.90
2024-04-18T23:01:53.806Z,7.80
2024-04-18T23:04:21.548Z,7.80
2024-04-18T23:06:48.854Z,7.80
2024-04-18T23:09:17.489Z,7.70
2024-04-18T23:11:45.708Z,7.70
2024-04-18T23:14:14.220Z,7.80
2024-04-18T23:16:43.838Z,7.70
2024-04-18T23:19:12.200Z,7.80
2024-04-18T23:21:40.048Z,7.80
2024-04-18T23:24:10.137Z,7.80
2024-04-18T23:26:39.804Z,7.70
2024-04-18T23:29:08.406Z,7.60
2024-04-18T23:31:37.069Z,7.60
2024-04-18T23:34:05.628Z,7.50
2024-04-18T23:36:34.474Z,7.60
2024-04-18T23:39:03.160Z,7.50
2024-04-18T23:41:32.128Z,7.50
2024-04-18T23:44:00.725Z,7.40
2024-04-18T23:46:29.031Z,7.40
2024-04-18T23:48:57.849Z,7.40
2024-04-18T23:51:26.609Z,7.30
2024-04-18T23:53:56.840Z,7.30
2024-04-18T23:56:25.322Z,7.30
2024-04-18T23:58:53.918Z,7.10
